Time;durP1;ratioP1;P1;durP2;ratioP2;P2;SDS_P1;SDS_P2;PMS_P1;PMS_P2;Temp;Humidity;BMP_temperature;BMP_pressure;BME280_temperature;BME280_humidity;BME280_pressure;Samples;Min_cycle;Max_cycle;Signal;HPM_P1;HPM_P2
2021/01/08 00:02:14;;;;;;;11.30;10.20;;;;;;;1.45;86.10;99908.91;5052127;28;20676;-79
2021/01/08 00:04:40;;;;;;;10.93;9.83;;;;;;;1.46;86.22;99912.34;5051582;28;20209;-79
2021/01/08 00:07:06;;;;;;;11.13;10.20;;;;;;;1.45;86.09;99908.91;5055182;28;20682;-78
2021/01/08 00:09:32;;;;;;;11.87;10.77;;;;;;;1.52;86.65;99912.38;5054391;28;20864;-78
2021/01/08 00:11:59;;;;;;;11.47;10.47;;;;;;;1.50;87.02;99908.94;5054520;28;20213;-78
2021/01/08 00:14:24;;;;;;;12.97;11.77;;;;;;;1.55;86.11;99910.72;5053780;28;20206;-78
2021/01/08 00:16:50;;;;;;;11.80;10.73;;;;;;;1.55;86.37;99895.28;5054570;28;20208;-78
2021/01/08 00:19:16;;;;;;;11.20;10.20;;;;;;;1.58;86.71;99907.28;5053049;28;20225;-79
2021/01/08 00:21:43;;;;;;;11.97;10.87;;;;;;;1.54;86.73;99906.41;5051967;28;20630;-78
2021/01/08 00:24:10;;;;;;;12.13;11.03;;;;;;;1.51;86.47;99911.53;5053888;28;20201;-78
2021/01/08 00:26:40;;;;;;;11.50;10.40;;;;;;;1.52;86.27;99913.25;5054534;28;20252;-78
2021/01/08 00:29:08;;;;;;;11.10;10.03;;;;;;;1.46;86.55;99908.03;5049472;28;20221;-78
2021/01/08 00:31:38;;;;;;;10.47;9.47;;;;;;;1.45;86.95;99913.16;5054500;28;20209;-78
2021/01/08 00:34:05;;;;;;;12.10;11.00;;;;;;;1.49;86.20;99907.22;5052032;28;20201;-78
2021/01/08 00:36:31;;;;;;;11.87;10.77;;;;;;;1.56;86.08;99915.00;5051396;28;20209;-78
2021/01/08 00:38:57;;;;;;;11.30;10.30;;;;;;;1.55;86.01;99913.28;5051713;28;20352;-79
2021/01/08 00:41:30;;;;;;;10.53;9.53;;;;;;;1.56;86.28;99909.00;5053071;28;20210;-79
2021/01/08 00:43:56;;;;;;;11.83;10.73;;;;;;;1.55;86.41;99904.72;5052985;28;20205;-78
2021/01/08 00:46:31;;;;;;;11.87;10.77;;;;;;;1.52;86.79;99910.66;5049263;28;20285;-79
2021/01/08 00:48:57;;;;;;;13.30;11.93;;;;;;;1.49;86.44;99900.38;5053305;28;20239;-78
2021/01/08 00:51:22;;;;;;;12.17;10.53;;;;;;;1.48;86.22;99905.50;5054286;28;20572;-78
2021/01/08 00:53:48;;;;;;;12.03;10.93;;;;;;;1.50;87.19;99912.38;5070187;28;20200;-78
2021/01/08 00:56:18;;;;;;;11.90;10.90;;;;;;;1.44;86.87;99908.88;5054146;28;20254;-78
2021/01/08 00:58:44;;;;;;;11.57;10.50;;;;;;;1.48;86.82;99906.34;5050213;28;20198;-79
2021/01/08 01:01:10;;;;;;;11.83;10.63;;;;;;;1.48;87.18;99911.50;5053586;28;20212;-78
2021/01/08 01:03:36;;;;;;;11.70;10.70;;;;;;;1.48;86.33;99910.63;5054823;28;20202;-79
2021/01/08 01:06:02;;;;;;;11.80;10.70;;;;;;;1.50;86.83;99914.09;5051722;28;20295;-79
2021/01/08 01:08:28;;;;;;;10.80;9.90;;;;;;;1.56;86.52;99915.00;5063926;28;20653;-78
2021/01/08 01:10:54;;;;;;;11.27;10.17;;;;;;;1.53;86.43;99914.97;5058759;28;20641;-77
2021/01/08 01:13:20;;;;;;;10.33;9.33;;;;;;;1.51;86.10;99908.09;5076084;28;20248;-78
2021/01/08 01:15:46;;;;;;;10.60;9.60;;;;;;;1.55;86.27;99909.84;5065864;28;20289;-77
2021/01/08 01:18:12;;;;;;;11.53;10.53;;;;;;;1.51;86.47;99916.69;5086572;28;20197;-77
2021/01/08 01:20:38;;;;;;;11.10;10.10;;;;;;;1.49;87.06;99920.09;5073353;28;20206;-78
2021/01/08 01:23:04;;;;;;;13.13;11.73;;;;;;;1.53;86.98;99914.97;5083701;28;20227;-78
2021/01/08 01:25:30;;;;;;;11.27;10.27;;;;;;;1.50;86.56;99922.66;5077351;28;20276;-80
2021/01/08 01:27:56;;;;;;;10.73;9.83;;;;;;;1.53;86.70;99920.13;5070315;28;20253;-79
2021/01/08 01:30:22;;;;;;;10.07;9.07;;;;;;;1.53;86.54;99919.28;5079851;28;20233;-78
2021/01/08 01:32:48;;;;;;;12.00;10.93;;;;;;;1.48;85.89;99920.94;5096098;28;20211;-78
2021/01/08 01:35:14;;;;;;;10.57;9.60;;;;;;;1.58;85.72;99922.72;5062028;28;20221;-80
2021/01/08 01:37:41;;;;;;;11.00;10.10;;;;;;;1.57;86.44;99926.16;5066894;28;20205;-80
2021/01/08 01:40:08;;;;;;;10.17;9.27;;;;;;;1.56;86.38;99924.44;5062664;28;20256;-79
2021/01/08 01:42:34;;;;;;;10.10;9.20;;;;;;;1.54;85.82;99924.41;5077925;28;20542;-79
2021/01/08 01:45:00;;;;;;;10.93;9.93;;;;;;;1.54;86.09;99926.13;5066518;28;20212;-80
2021/01/08 01:47:26;;;;;;;10.03;9.13;;;;;;;1.47;86.81;99924.34;5046967;28;20259;-80
2021/01/08 01:49:52;;;;;;;10.23;9.33;;;;;;;1.49;86.48;99922.66;5057655;28;20251;-79
2021/01/08 01:52:19;;;;;;;10.57;9.70;;;;;;;1.51;86.25;99936.41;5068451;28;20506;-80
2021/01/08 01:54:45;;;;;;;10.13;9.27;;;;;;;1.52;86.88;99932.97;5059153;28;20676;-79
2021/01/08 01:57:11;;;;;;;10.17;9.27;;;;;;;1.61;87.09;99934.78;5067105;28;20197;-79
2021/01/08 01:59:37;;;;;;;10.60;9.70;;;;;;;1.63;86.45;99933.94;5065577;28;20230;-79
2021/01/08 02:02:13;;;;;;;11.47;10.47;;;;;;;1.60;86.46;99931.31;5071533;28;20211;-79
2021/01/08 02:04:40;;;;;;;12.33;9.20;;;;;;;1.55;86.38;99933.84;5068445;28;20205;-80
2021/01/08 02:07:06;;;;;;;10.40;9.50;;;;;;;1.61;85.91;99935.63;5062463;28;20217;-79
2021/01/08 02:09:33;;;;;;;9.77;8.97;;;;;;;1.58;86.80;99933.88;5054679;28;20594;-80
2021/01/08 02:12:01;;;;;;;11.30;10.30;;;;;;;1.54;86.05;99936.41;5063388;28;20812;-80
2021/01/08 02:14:29;;;;;;;10.27;9.37;;;;;;;1.52;86.33;99928.66;5069713;28;21641;-79
2021/01/08 02:16:57;;;;;;;11.67;10.67;;;;;;;1.44;85.56;99930.31;5064703;28;20223;-78
2021/01/08 02:19:27;;;;;;;10.93;10.03;;;;;;;1.27;85.87;99935.31;5070440;28;20707;-79
2021/01/08 02:22:00;;;;;;;10.60;9.70;;;;;;;1.17;86.69;99939.47;5061929;28;20263;-79
2021/01/08 02:24:31;;;;;;;11.27;10.17;;;;;;;1.08;87.61;99938.50;5058103;28;20198;-79
2021/01/08 02:26:59;;;;;;;11.40;10.10;;;;;;;1.07;87.11;99942.78;5063601;28;20636;-79
2021/01/08 02:29:26;;;;;;;11.67;10.67;;;;;;;0.91;88.28;99941.75;5071267;28;20707;-79
2021/01/08 02:31:52;;;;;;;10.73;9.63;;;;;;;0.98;87.94;99945.25;5065420;28;20264;-79
2021/01/08 02:34:18;;;;;;;10.23;9.33;;;;;;;1.11;87.86;99939.41;5072909;28;20279;-79
2021/01/08 02:36:46;;;;;;;9.70;8.87;;;;;;;1.19;87.65;99942.94;5059493;28;20204;-77
2021/01/08 02:39:12;;;;;;;9.80;8.93;;;;;;;1.14;87.07;99944.56;5069426;28;20220;-78
2021/01/08 02:41:42;;;;;;;10.27;9.27;;;;;;;1.26;86.94;99943.00;5059568;28;20270;-77
2021/01/08 02:44:10;;;;;;;9.73;8.93;;;;;;;1.30;87.54;99949.88;5070371;28;20216;-77
2021/01/08 02:46:36;;;;;;;9.73;8.67;;;;;;;1.32;86.97;99950.75;5061646;28;20247;-78
2021/01/08 02:49:02;;;;;;;9.77;8.87;;;;;;;1.33;87.51;99945.66;5071544;28;20235;-78
2021/01/08 02:51:28;;;;;;;10.10;9.13;;;;;;;1.44;87.34;99948.31;5048768;28;20718;-78
2021/01/08 02:53:57;;;;;;;9.77;8.87;;;;;;;1.48;86.63;99947.50;5049941;28;20228;-78
2021/01/08 02:56:29;;;;;;;9.30;8.50;;;;;;;1.55;86.89;99943.28;5064544;28;20197;-77
2021/01/08 02:58:55;;;;;;;9.80;9.00;;;;;;;1.56;86.53;99945.00;5072567;28;20262;-78
2021/01/08 03:01:23;;;;;;;9.57;8.50;;;;;;;1.56;86.11;99937.28;5058954;28;20212;-77
2021/01/08 03:03:49;;;;;;;10.37;9.47;;;;;;;1.38;86.21;99943.97;5073076;28;20204;-77
2021/01/08 03:06:16;;;;;;;10.17;9.27;;;;;;;1.27;87.00;99950.72;5055166;28;20229;-77
2021/01/08 03:08:42;;;;;;;9.90;9.10;;;;;;;1.36;86.68;99940.53;5057367;28;20205;-77
2021/01/08 03:11:10;;;;;;;9.40;8.60;;;;;;;1.41;87.04;99942.28;5055719;28;20197;-76
2021/01/08 03:13:38;;;;;;;9.90;9.10;;;;;;;1.43;86.31;99946.59;5072422;28;20201;-77
2021/01/08 03:16:04;;;;;;;9.93;9.03;;;;;;;1.41;86.90;99938.00;5055328;28;20633;-77
2021/01/08 03:18:31;;;;;;;10.03;9.13;;;;;;;1.39;87.49;99942.28;5069289;28;20262;-77
2021/01/08 03:20:57;;;;;;;9.23;8.43;;;;;;;1.46;86.82;99938.06;5051565;28;20254;-78
2021/01/08 03:23:23;;;;;;;9.33;8.43;;;;;;;1.44;87.16;99937.19;5049685;28;20209;-78
2021/01/08 03:25:49;;;;;;;9.07;8.27;;;;;;;1.51;86.95;99928.69;5053730;28;20225;-77
2021/01/08 03:28:15;;;;;;;9.03;8.23;;;;;;;1.43;86.67;99933.75;5056041;28;20255;-77
2021/01/08 03:30:40;;;;;;;8.50;7.70;;;;;;;1.38;86.51;99935.41;5055136;28;20225;-77
2021/01/08 03:33:06;;;;;;;8.77;7.97;;;;;;;1.50;86.28;99935.50;5055239;28;20231;-76
2021/01/08 03:35:33;;;;;;;8.50;7.70;;;;;;;1.55;85.77;99933.84;5053697;28;20205;-77
2021/01/08 03:37:59;;;;;;;7.90;7.20;;;;;;;1.55;85.77;99927.88;5053605;28;20198;-77
2021/01/08 03:40:25;;;;;;;8.40;7.70;;;;;;;1.51;86.44;99937.25;5053325;28;20583;-77
2021/01/08 03:42:50;;;;;;;6.97;6.37;;;;;;;1.47;85.66;99942.38;5055024;28;20205;-77
2021/01/08 03:45:16;;;;;;;7.20;6.60;;;;;;;1.47;85.16;99938.06;5054660;28;20205;-77
2021/01/08 03:47:42;;;;;;;7.03;6.43;;;;;;;1.11;85.79;99938.53;5055964;28;20229;-77
2021/01/08 03:50:09;;;;;;;8.20;7.50;;;;;;;1.12;86.63;99935.13;5054922;28;20225;-78
2021/01/08 03:52:36;;;;;;;6.57;6.07;;;;;;;1.16;86.80;99935.16;5055117;28;20216;-79
2021/01/08 03:55:02;;;;;;;7.63;6.93;;;;;;;1.24;87.26;99939.53;5050614;28;20206;-80
2021/01/08 03:57:28;;;;;;;6.00;5.40;;;;;;;1.24;86.56;99940.41;5055659;28;20247;-78
2021/01/08 03:59:54;;;;;;;6.70;6.00;;;;;;;1.16;85.96;99937.75;5053006;28;20225;-79
2021/01/08 04:02:19;;;;;;;7.57;6.97;;;;;;;1.22;86.59;99942.09;5051496;28;20690;-77
2021/01/08 04:04:45;;;;;;;7.30;6.70;;;;;;;1.12;86.42;99943.69;5054366;28;20845;-77
2021/01/08 04:07:11;;;;;;;5.83;5.43;;;;;;;1.21;86.27;99940.38;5054100;28;20269;-77
2021/01/08 04:09:38;;;;;;;7.17;6.57;;;;;;;1.31;86.43;99943.88;5049162;28;20230;-76
2021/01/08 04:12:04;;;;;;;7.30;6.60;;;;;;;1.37;86.93;99946.53;5054534;28;20202;-77
2021/01/08 04:14:30;;;;;;;7.60;6.97;;;;;;;1.34;86.97;99943.94;5053097;28;20197;-76
2021/01/08 04:16:56;;;;;;;7.57;6.77;;;;;;;1.40;86.65;99941.41;5052479;28;20575;-77
2021/01/08 04:19:22;;;;;;;6.93;6.37;;;;;;;1.38;85.94;99943.97;5050209;28;20694;-79
2021/01/08 04:21:50;;;;;;;7.53;6.83;;;;;;;1.38;86.31;99946.53;5052713;28;20236;-76
2021/01/08 04:24:16;;;;;;;6.87;6.27;;;;;;;1.42;86.36;99944.00;5045251;28;20213;-77
2021/01/08 04:26:42;;;;;;;6.50;5.90;;;;;;;1.48;86.16;99949.22;5053892;28;20225;-76
2021/01/08 04:29:08;;;;;;;6.27;5.67;;;;;;;1.45;85.77;99947.47;5053620;28;20224;-77
2021/01/08 04:31:34;;;;;;;6.20;5.70;;;;;;;1.38;85.95;99945.69;5053870;28;20204;-78
2021/01/08 04:34:00;;;;;;;6.77;6.17;;;;;;;1.35;86.39;99948.25;5053464;28;20205;-78
2021/01/08 04:36:26;;;;;;;6.10;5.60;;;;;;;1.33;86.31;99945.66;5052397;28;20605;-77
2021/01/08 04:38:52;;;;;;;5.63;5.20;;;;;;;1.35;86.83;99948.25;5054768;28;20611;-79
2021/01/08 04:41:18;;;;;;;6.10;5.53;;;;;;;1.39;87.39;99948.28;5054260;28;20221;-77
2021/01/08 04:43:44;;;;;;;6.20;5.60;;;;;;;1.32;86.58;99950.75;5054935;28;20244;-77
2021/01/08 04:46:17;;;;;;;6.73;6.13;;;;;;;1.32;86.39;99951.63;5052913;28;20268;-77
2021/01/08 04:48:44;;;;;;;6.27;5.73;;;;;;;1.36;86.72;99950.81;5052871;28;20212;-77
2021/01/08 04:51:11;;;;;;;6.57;6.07;;;;;;;1.45;86.96;99947.47;5056528;28;20210;-77
2021/01/08 04:53:37;;;;;;;6.07;5.57;;;;;;;1.52;86.82;99953.53;5071191;28;20715;-80
2021/01/08 04:56:06;;;;;;;6.47;5.93;;;;;;;1.45;85.54;99949.16;5063841;28;20200;-80
2021/01/08 04:58:33;;;;;;;6.30;5.80;;;;;;;1.46;85.65;99946.63;5074970;28;20197;-78
2021/01/08 05:01:01;;;;;;;6.43;5.83;;;;;;;1.48;86.65;99952.63;5058248;28;20729;-79
2021/01/08 05:03:28;;;;;;;7.00;6.40;;;;;;;1.29;86.04;99945.56;5074820;28;20639;-77
2021/01/08 05:05:53;;;;;;;7.30;6.60;;;;;;;1.27;85.77;99943.00;5057575;28;20225;-79
2021/01/08 05:08:19;;;;;;;6.97;6.37;;;;;;;1.24;85.51;99953.25;5073563;28;20208;-80
2021/01/08 05:10:45;;;;;;;7.13;6.53;;;;;;;1.32;85.79;99949.03;5057352;28;20220;-77
2021/01/08 05:13:11;;;;;;;6.50;5.90;;;;;;;1.20;86.28;99951.50;5045186;28;20206;-77
2021/01/08 05:15:39;;;;;;;6.50;5.90;;;;;;;1.21;86.08;99952.34;5052144;28;20203;-79
2021/01/08 05:18:06;;;;;;;7.13;6.53;;;;;;;1.13;86.53;99957.41;5065158;28;20197;-76
2021/01/08 05:20:32;;;;;;;6.83;6.23;;;;;;;1.19;87.06;99955.78;5058611;28;20228;-80
2021/01/08 05:22:59;;;;;;;6.03;5.53;;;;;;;1.23;86.63;99954.13;5070885;28;20690;-79
2021/01/08 05:25:25;;;;;;;6.97;6.37;;;;;;;1.32;86.41;99955.91;5065950;28;20205;-79
2021/01/08 05:27:51;;;;;;;6.03;5.43;;;;;;;1.32;87.07;99966.19;5074915;28;20231;-79
2021/01/08 05:30:19;;;;;;;6.60;6.00;;;;;;;1.36;86.17;99955.94;5063018;28;20225;-80
2021/01/08 05:32:46;;;;;;;6.80;6.20;;;;;;;1.35;86.34;99961.94;5069563;28;20205;-80
2021/01/08 05:35:15;;;;;;;6.77;6.17;;;;;;;1.39;86.54;99956.00;5044660;28;20197;-79
2021/01/08 05:37:46;;;;;;;7.20;6.60;;;;;;;1.24;85.72;99960.97;5064676;28;20209;-78
2021/01/08 05:40:13;;;;;;;7.23;6.63;;;;;;;1.28;86.58;99961.88;5059572;28;20308;-80
2021/01/08 05:42:56;;;;;;;6.50;5.97;;;;;;;1.38;86.38;99968.81;5074574;28;20212;-79
2021/01/08 05:45:23;;;;;;;7.53;6.87;;;;;;;1.36;86.71;99970.53;5061758;28;20206;-79
2021/01/08 05:47:50;;;;;;;6.93;6.33;;;;;;;1.31;86.58;99964.44;5069293;28;20200;-79
2021/01/08 05:50:20;;;;;;;6.27;5.67;;;;;;;1.37;86.32;99972.25;5065902;28;20273;-80
2021/01/08 05:52:49;;;;;;;8.00;7.30;;;;;;;1.27;85.87;99972.97;5072667;28;20204;-79
2021/01/08 05:55:15;;;;;;;7.10;6.43;;;;;;;1.34;86.21;99975.63;5062915;28;20201;-78
2021/01/08 05:57:42;;;;;;;7.60;6.90;;;;;;;1.21;86.08;99972.91;5076534;28;20206;-79
2021/01/08 06:00:09;;;;;;;7.93;7.20;;;;;;;1.21;86.18;99972.91;5062919;28;20260;-79
2021/01/08 06:02:35;;;;;;;9.53;8.80;;;;;;;1.09;87.19;99977.09;5068287;28;20250;-78
2021/01/08 06:05:01;;;;;;;9.70;8.90;;;;;;;1.23;86.67;99984.06;5065929;28;20208;-79
2021/01/08 06:07:28;;;;;;;10.60;9.70;;;;;;;1.06;86.80;99982.19;5067037;28;20584;-79
2021/01/08 06:10:02;;;;;;;10.20;9.30;;;;;;;0.98;87.51;99979.50;5057464;28;20222;-81
2021/01/08 06:12:32;;;;;;;7.30;6.60;;;;;;;1.17;87.70;99983.19;5065224;28;20197;-80
2021/01/08 06:15:00;;;;;;;6.87;6.27;;;;;;;1.26;86.88;99978.97;5065151;28;20589;-79
2021/01/08 06:17:26;;;;;;;7.57;6.87;;;;;;;1.17;87.45;99983.19;5068403;28;20249;-79
2021/01/08 06:20:00;;;;;;;9.00;8.10;;;;;;;0.90;87.33;99983.69;5068639;28;20316;-79
2021/01/08 06:22:27;;;;;;;10.07;9.17;;;;;;;0.79;88.25;99985.25;5068785;28;20200;-78
2021/01/08 06:24:54;;;;;;;9.90;8.70;;;;;;;0.74;88.53;99987.78;5049429;28;20651;-79
2021/01/08 06:27:31;;;;;;;11.50;9.83;;;;;;;0.75;89.14;99988.63;5068489;28;20785;-79
2021/01/08 06:30:00;;;;;;;8.93;7.37;;;;;;;0.76;89.47;99987.78;5060679;28;20224;-79
2021/01/08 06:32:29;;;;;;;10.83;8.60;;;;;;;0.85;88.94;99992.19;5077061;28;20283;-79
2021/01/08 06:35:00;;;;;;;10.13;9.07;;;;;;;0.87;89.40;99990.50;5067466;28;20212;-79
2021/01/08 06:37:36;;;;;;;10.70;8.17;;;;;;;0.99;88.31;99991.53;5064292;28;20577;-79
2021/01/08 06:40:04;;;;;;;10.10;8.67;;;;;;;1.03;89.13;99991.56;5061201;28;20232;-79
2021/01/08 06:42:31;;;;;;;10.63;8.83;;;;;;;0.79;88.60;99991.28;5074252;28;20208;-79
2021/01/08 06:44:58;;;;;;;10.23;9.23;;;;;;;0.81;89.46;99995.56;5067785;28;20208;-78
2021/01/08 06:47:28;;;;;;;9.63;8.63;;;;;;;0.78;89.71;100002.38;5066894;28;20228;-79
2021/01/08 06:49:57;;;;;;;11.70;9.87;;;;;;;0.75;89.55;100004.03;5065279;28;20225;-80
2021/01/08 06:52:23;;;;;;;10.50;9.23;;;;;;;0.67;89.48;100001.34;5067165;28;20254;-78
2021/01/08 06:54:53;;;;;;;11.50;9.80;;;;;;;0.70;90.25;100013.41;5062474;28;20255;-78
2021/01/08 06:57:21;;;;;;;13.60;9.97;;;;;;;0.70;90.22;100009.13;5061207;28;20287;-79
2021/01/08 06:59:54;;;;;;;10.83;9.73;;;;;;;0.74;90.02;100015.16;5063710;28;20705;-79
2021/01/08 07:02:22;;;;;;;12.00;10.80;;;;;;;0.66;89.96;100012.50;5064086;28;20196;-79
2021/01/08 07:04:48;;;;;;;11.93;10.13;;;;;;;0.52;90.01;100019.13;5070424;28;20217;-78
2021/01/08 07:07:21;;;;;;;11.87;10.67;;;;;;;0.53;90.82;100023.41;5069577;28;20216;-79
2021/01/08 07:09:47;;;;;;;11.27;9.90;;;;;;;0.32;91.35;100027.38;5069642;28;20674;-79
2021/01/08 07:12:13;;;;;;;15.23;12.60;;;;;;;0.23;91.63;100029.78;5049000;28;20201;-80
2021/01/08 07:14:40;;;;;;;13.00;11.17;;;;;;;0.17;91.98;100039.97;5055216;28;20211;-78
2021/01/08 07:17:09;;;;;;;12.93;10.57;;;;;;;0.12;92.23;100037.34;5077263;28;20577;-78
2021/01/08 07:19:39;;;;;;;12.97;10.97;;;;;;;0.11;92.35;100045.84;5060916;28;20224;-79
2021/01/08 07:22:05;;;;;;;15.80;11.57;;;;;;;0.13;92.79;100043.31;5048528;28;20204;-79
2021/01/08 07:24:31;;;;;;;16.20;11.43;;;;;;;0.09;92.81;100051.81;5062737;28;20215;-79
2021/01/08 07:27:14;;;;;;;14.80;12.10;;;;;;;-0.02;93.18;100057.63;5074224;28;20228;-79
2021/01/08 07:29:47;;;;;;;17.20;12.27;;;;;;;-0.08;92.98;100060.09;5070742;28;20238;-79
2021/01/08 07:32:13;;;;;;;17.77;12.33;;;;;;;-0.07;93.08;100058.38;5068183;28;20584;-79
2021/01/08 07:34:39;;;;;;;18.47;12.23;;;;;;;-0.08;93.70;100064.31;5070152;28;20235;-80
2021/01/08 07:37:05;;;;;;;19.40;12.33;;;;;;;-0.08;93.42;100069.44;5049880;28;20197;-79
2021/01/08 07:39:41;;;;;;;20.57;14.00;;;;;;;-0.12;93.70;100071.13;5053784;28;20227;-79
2021/01/08 07:42:35;;;;;;;18.40;13.23;;;;;;;-0.12;93.91;100083.06;5073596;28;20407;-80
2021/01/08 07:45:03;;;;;;;19.20;13.50;;;;;;;-0.14;94.18;100092.44;5066741;28;20214;-80
2021/01/08 07:47:29;;;;;;;22.97;13.53;;;;;;;-0.21;94.21;100089.75;5070043;28;20216;-79
2021/01/08 07:50:09;;;;;;;24.57;13.27;;;;;;;-0.18;94.37;100088.09;5067784;28;20597;-80
2021/01/08 07:52:35;;;;;;;18.83;13.43;;;;;;;-0.19;94.67;100091.50;5071567;28;20195;-78
2021/01/08 07:55:01;;;;;;;17.67;12.63;;;;;;;-0.19;94.04;100094.06;5053437;28;20208;-80
2021/01/08 07:57:27;;;;;;;17.97;12.10;;;;;;;-0.12;94.14;100103.59;5055449;28;20686;-79
2021/01/08 07:59:53;;;;;;;17.20;11.37;;;;;;;-0.11;94.48;100107.91;5055379;28;20314;-82
2021/01/08 08:02:20;;;;;;;12.27;10.37;;;;;;;0.01;94.24;100117.53;5061870;28;20243;-80
2021/01/08 08:04:47;;;;;;;12.80;9.33;;;;;;;0.01;94.42;100114.97;5055212;28;20208;-79
2021/01/08 08:07:13;;;;;;;11.20;9.77;;;;;;;-0.01;93.59;100117.50;5056289;28;20219;-78
2021/01/08 08:09:39;;;;;;;11.13;9.23;;;;;;;0.09;93.45;100113.41;5055836;28;20232;-79
2021/01/08 08:12:11;;;;;;;10.30;9.30;;;;;;;0.05;93.27;100116.75;5055805;28;20210;-78
2021/01/08 08:14:40;;;;;;;9.40;8.40;;;;;;;-0.08;93.71;100123.31;5054885;28;20205;-78
2021/01/08 08:17:06;;;;;;;13.02;11.73;;;;;;;-0.10;93.53;100128.44;5054600;28;20439;-80
2021/01/08 08:19:33;;;;;;;10.40;9.20;;;;;;;-0.03;93.81;100132.00;5054977;28;20225;-80
2021/01/08 08:21:59;;;;;;;8.67;7.87;;;;;;;0.04;93.25;100136.41;5055318;28;20208;-82
2021/01/08 08:24:27;;;;;;;7.67;6.87;;;;;;;0.07;93.52;100133.88;5054753;28;20678;-80
2021/01/08 08:26:53;;;;;;;7.93;7.23;;;;;;;-0.02;93.27;100139.72;5053125;28;20221;-81
2021/01/08 08:29:19;;;;;;;8.67;7.83;;;;;;;-0.09;93.55;100140.44;5054963;28;20240;-81
2021/01/08 08:31:47;;;;;;;10.13;9.00;;;;;;;-0.16;93.60;100141.13;5055871;28;20300;-80
2021/01/08 08:34:14;;;;;;;10.03;8.67;;;;;;;-0.19;94.12;100148.78;5052041;28;20209;-80
2021/01/08 08:36:42;;;;;;;11.00;9.33;;;;;;;-0.22;94.29;100151.28;5055056;28;20208;-80
2021/01/08 08:39:10;;;;;;;10.83;9.17;;;;;;;-0.15;94.04;100150.56;5055887;28;20224;-82
2021/01/08 08:41:39;;;;;;;12.70;10.43;;;;;;;-0.10;94.18;100154.09;5052563;28;20209;-81
2021/01/08 08:44:08;;;;;;;11.57;10.20;;;;;;;-0.10;94.27;100156.66;5053844;28;20196;-80
2021/01/08 08:46:56;;;;;;;11.87;10.63;;;;;;;-0.14;93.76;100156.56;5051417;28;20216;-80
2021/01/08 08:49:24;;;;;;;10.40;9.37;;;;;;;-0.07;93.86;100166.13;5049748;28;20235;-81
2021/01/08 08:51:52;;;;;;;10.23;9.17;;;;;;;-0.16;94.30;100168.50;5053972;28;20201;-82
2021/01/08 08:54:19;;;;;;;12.07;10.40;;;;;;;-0.16;94.18;100161.66;5052599;28;20262;-83
2021/01/08 08:56:49;;;;;;;9.83;8.83;;;;;;;-0.05;94.14;100167.00;5051201;28;20251;-82
2021/01/08 08:59:16;;;;;;;10.47;9.33;;;;;;;0.04;94.02;100168.88;5053665;28;20640;-79
2021/01/08 09:01:43;;;;;;;9.93;8.93;;;;;;;0.09;94.09;100168.13;5052553;28;20208;-79
2021/01/08 09:04:09;;;;;;;10.13;8.50;;;;;;;0.17;93.74;100174.28;5053037;28;20205;-82
2021/01/08 09:06:43;;;;;;;8.77;7.97;;;;;;;0.14;93.50;100173.34;5052050;28;20220;-82
2021/01/08 09:09:14;;;;;;;8.50;7.70;;;;;;;0.15;92.84;100173.38;5054861;28;20221;-81
2021/01/08 09:11:49;;;;;;;8.43;7.60;;;;;;;0.24;93.01;100169.25;5052567;28;20212;-80
2021/01/08 09:14:20;;;;;;;8.67;7.67;;;;;;;0.12;92.94;100169.88;5051749;28;20295;-79
2021/01/08 09:16:51;;;;;;;9.20;8.27;;;;;;;0.21;92.86;100182.03;5053210;28;20213;-82
2021/01/08 09:19:21;;;;;;;9.80;8.60;;;;;;;0.19;92.99;100182.00;5054218;28;20232;-79
2021/01/08 09:21:48;;;;;;;8.33;7.53;;;;;;;0.24;92.71;100188.13;5051710;28;20197;-80
2021/01/08 09:24:19;;;;;;;8.87;7.97;;;;;;;0.17;92.55;100187.09;5053905;28;20608;-79
2021/01/08 09:26:45;;;;;;;8.90;8.03;;;;;;;0.26;92.81;100198.38;5047673;28;20224;-80
2021/01/08 09:29:11;;;;;;;8.10;7.30;;;;;;;0.32;92.29;100194.25;5051926;28;20592;-78
2021/01/08 09:31:38;;;;;;;8.57;7.70;;;;;;;0.33;nan;100193.41;5053939;28;20213;-78
2021/01/08 09:34:05;;;;;;;8.90;8.00;;;;;;;0.27;92.22;100195.00;5053110;28;20198;-81
2021/01/08 09:36:31;;;;;;;8.43;7.53;;;;;;;0.24;92.78;100200.94;5054017;28;20193;-80
2021/01/08 09:39:00;;;;;;;8.80;7.90;;;;;;;0.34;92.29;100207.97;5054636;28;20571;-79
2021/01/08 09:41:26;;;;;;;9.03;8.20;;;;;;;0.40;92.05;100202.09;5050392;28;20272;-79
2021/01/08 09:43:59;;;;;;;8.43;7.63;;;;;;;0.39;92.17;100203.78;5053066;28;20205;-80
2021/01/08 09:46:25;;;;;;;8.17;7.37;;;;;;;0.49;91.50;100212.50;5051913;28;20687;-78
2021/01/08 09:48:51;;;;;;;8.37;7.47;;;;;;;0.38;92.09;100219.19;5053058;28;20204;-78
2021/01/08 09:51:17;;;;;;;8.13;7.33;;;;;;;0.36;92.28;100208.88;5050209;28;20205;-78
2021/01/08 09:53:53;;;;;;;7.97;7.13;;;;;;;0.40;92.09;100212.38;5052892;28;20208;-78
2021/01/08 09:56:19;;;;;;;8.40;7.60;;;;;;;0.58;92.34;100202.41;5049704;28;20613;-79
2021/01/08 09:58:45;;;;;;;10.03;9.03;;;;;;;0.81;92.50;100211.34;5049474;28;20208;-80
2021/01/08 10:01:13;;;;;;;10.35;9.55;;;;;;;0.75;91.91;100217.25;5051607;28;20466;-79
2021/01/08 10:03:40;;;;;;;7.87;7.27;;;;;;;0.73;91.58;100218.94;5053925;28;20223;-79
2021/01/08 10:06:09;;;;;;;8.37;7.57;;;;;;;0.69;90.90;100218.00;5046812;28;20695;-80
2021/01/08 10:08:36;;;;;;;9.67;8.83;;;;;;;0.71;90.97;100218.88;5051155;28;20220;-80
2021/01/08 10:11:02;;;;;;;9.97;9.07;;;;;;;0.81;90.64;100219.91;5049561;28;20319;-80
2021/01/08 10:13:28;;;;;;;9.20;8.30;;;;;;;0.90;90.46;100219.22;5054500;28;20201;-79
2021/01/08 10:15:56;;;;;;;8.27;7.47;;;;;;;0.87;90.00;100219.16;5049434;28;20292;-78
2021/01/08 10:18:24;;;;;;;7.13;6.40;;;;;;;0.90;90.21;100221.78;5053366;28;20280;-79
2021/01/08 10:20:52;;;;;;;6.37;5.80;;;;;;;0.86;89.90;100227.72;5053613;28;20232;-79
2021/01/08 10:23:21;;;;;;;6.67;6.07;;;;;;;0.94;90.53;100229.56;5053078;28;20220;-79
2021/01/08 10:25:47;;;;;;;6.70;6.10;;;;;;;0.91;90.25;100226.97;5051826;28;20687;-80
2021/01/08 10:28:16;;;;;;;8.15;7.47;;;;;;;0.72;89.74;100230.06;5053613;28;20436;-80
2021/01/08 10:30:44;;;;;;;7.33;6.60;;;;;;;0.90;90.42;100232.06;5053292;28;20229;-79
2021/01/08 10:33:10;;;;;;;7.27;6.57;;;;;;;0.84;90.78;100235.41;5052635;28;20202;-80
2021/01/08 10:35:45;;;;;;;6.50;5.90;;;;;;;0.93;89.82;100233.00;5051133;28;20201;-80
2021/01/08 10:38:11;;;;;;;10.13;9.13;;;;;;;1.05;90.34;100239.16;5053413;28;20204;-80
2021/01/08 10:40:37;;;;;;;15.43;13.93;;;;;;;1.08;90.20;100237.50;5053925;28;20302;-79
2021/01/08 10:43:03;;;;;;;16.13;14.40;;;;;;;1.30;89.79;100238.72;5052903;28;20254;-78
2021/01/08 10:45:28;;;;;;;10.03;9.13;;;;;;;1.42;90.11;100243.19;5049635;28;20620;-78
2021/01/08 10:47:54;;;;;;;8.83;8.03;;;;;;;1.62;90.15;100234.88;5051181;28;20229;-77
2021/01/08 10:50:21;;;;;;;7.73;7.00;;;;;;;1.73;89.48;100238.47;5052780;28;20241;-78
2021/01/08 10:52:47;;;;;;;7.80;6.67;;;;;;;1.80;88.87;100240.28;5070145;28;20205;-78
2021/01/08 10:55:13;;;;;;;7.23;6.57;;;;;;;1.84;88.14;100238.63;5054938;28;20202;-78
2021/01/08 10:57:39;;;;;;;6.33;5.73;;;;;;;1.92;87.72;100232.75;5045783;28;20229;-77
2021/01/08 11:00:08;;;;;;;6.73;6.10;;;;;;;2.04;86.66;100239.72;5053765;28;20225;-78
2021/01/08 11:02:35;;;;;;;8.57;7.27;;;;;;;1.98;86.86;100237.97;5069071;28;20193;-78
2021/01/08 11:05:01;;;;;;;9.40;7.47;;;;;;;2.07;86.46;100236.34;5064880;28;20560;-77
2021/01/08 11:07:27;;;;;;;6.53;5.93;;;;;;;2.13;84.61;100233.84;5068160;28;20223;-77
2021/01/08 11:09:53;;;;;;;5.23;4.83;;;;;;;2.15;84.12;100238.16;5065237;28;20225;-78
2021/01/08 11:12:19;;;;;;;5.20;4.77;;;;;;;2.11;84.03;100238.09;5065012;28;20200;-78
2021/01/08 11:14:45;;;;;;;5.93;5.37;;;;;;;2.13;85.09;100237.28;5060016;28;20206;-78
2021/01/08 11:17:11;;;;;;;5.07;4.67;;;;;;;2.18;84.62;100233.06;5071335;28;20197;-78
2021/01/08 11:19:39;;;;;;;4.63;4.23;;;;;;;2.20;85.02;100233.09;5067785;28;20268;-78
2021/01/08 11:22:05;;;;;;;7.03;6.33;;;;;;;2.11;84.50;100233.81;5056876;28;20722;-78
2021/01/08 11:24:31;;;;;;;5.70;5.10;;;;;;;2.18;85.06;100233.06;5059740;28;20213;-78
2021/01/08 11:26:57;;;;;;;6.97;5.17;;;;;;;2.16;84.82;100239.00;5044559;28;20218;-78
2021/01/08 11:29:23;;;;;;;7.53;6.83;;;;;;;2.21;85.19;100237.38;5049580;28;20229;-77
2021/01/08 11:31:49;;;;;;;11.30;9.57;;;;;;;2.29;84.53;100238.31;5065939;28;20276;-78
2021/01/08 11:34:15;;;;;;;14.67;11.63;;;;;;;2.34;84.35;100230.66;5070803;28;20223;-78